Time;durP1;ratioP1;P1;durP2;ratioP2;P2;SDS_P1;SDS_P2;PMS_P1;PMS_P2;Temp;Humidity;BMP_temperature;BMP_pressure;BME280_temperature;BME280_humidity;BME280_pressure;Samples;Min_cycle;Max_cycle;Signal;HPM_P1;HPM_P2
2023/05/31 00:00:53;;;;;;;5.18;2.28;;;;;;;10.35;100.00;102831.28;4978960;28;20123;-75
2023/05/31 00:03:43;;;;;;;4.93;2.70;;;;;;;10.33;100.00;102833.09;4995344;28;20061;-74
2023/05/31 00:06:27;;;;;;;4.43;1.83;;;;;;;10.30;100.00;102834.00;4981030;28;21039;-75
2023/05/31 00:09:11;;;;;;;3.80;2.03;;;;;;;10.29;100.00;102836.66;4992876;28;20107;-77
2023/05/31 00:11:55;;;;;;;4.70;2.28;;;;;;;10.25;100.00;102838.47;4993483;28;20065;-74
2023/05/31 00:14:39;;;;;;;5.30;2.63;;;;;;;10.20;100.00;102832.38;4996117;28;21106;-75
2023/05/31 00:17:23;;;;;;;3.42;2.00;;;;;;;10.17;100.00;102838.59;4991274;28;20088;-75
2023/05/31 00:20:07;;;;;;;5.07;2.75;;;;;;;10.14;100.00;102837.75;4994796;28;20057;-76
2023/05/31 00:22:51;;;;;;;4.18;2.42;;;;;;;10.11;100.00;102843.94;4981392;28;20041;-76
2023/05/31 00:25:35;;;;;;;5.40;2.65;;;;;;;10.07;100.00;102839.56;4994497;28;20578;-75
2023/05/31 00:28:19;;;;;;;4.07;2.03;;;;;;;10.04;100.00;102836.97;4994819;28;20103;-76
2023/05/31 00:31:03;;;;;;;3.22;2.28;;;;;;;10.03;100.00;102833.44;4992997;28;20096;-76
2023/05/31 00:33:47;;;;;;;6.25;2.53;;;;;;;10.00;100.00;102828.19;4994092;28;20064;-74
2023/05/31 00:36:32;;;;;;;4.18;2.20;;;;;;;9.98;100.00;102826.47;4991712;28;20056;-76
2023/05/31 00:39:17;;;;;;;6.72;2.67;;;;;;;9.91;100.00;102826.53;4992455;28;20155;-76
2023/05/31 00:42:02;;;;;;;4.15;2.40;;;;;;;9.87;100.00;102823.94;4989587;28;20052;-74
2023/05/31 00:44:46;;;;;;;6.60;2.95;;;;;;;9.80;100.00;102823.09;4992241;28;20404;-75
2023/05/31 00:47:30;;;;;;;6.55;2.63;;;;;;;9.74;100.00;102818.75;4990456;28;20052;-76
2023/05/31 00:50:14;;;;;;;4.28;2.42;;;;;;;9.68;100.00;102812.66;4992607;28;20119;-75
2023/05/31 00:53:02;;;;;;;6.43;2.60;;;;;;;9.64;100.00;102819.75;4973833;28;20044;-76
2023/05/31 00:55:47;;;;;;;4.47;2.50;;;;;;;9.59;100.00;102814.50;4992435;28;20052;-74
2023/05/31 00:58:31;;;;;;;5.40;2.60;;;;;;;9.53;100.00;102806.63;4988624;28;20041;-75
2023/05/31 01:01:15;;;;;;;5.95;2.42;;;;;;;9.48;100.00;102808.47;4991542;28;20135;-75
2023/05/31 01:03:59;;;;;;;4.82;2.35;;;;;;;9.44;100.00;102809.38;4975039;28;20045;-75
2023/05/31 01:06:44;;;;;;;7.20;2.78;;;;;;;9.40;100.00;102802.34;4990665;28;20129;-76
2023/05/31 01:09:30;;;;;;;9.43;2.72;;;;;;;9.33;100.00;102805.03;4988728;28;20994;-75
2023/05/31 01:12:43;;;;;;;6.40;2.92;;;;;;;9.28;100.00;102808.63;4971729;28;20049;-75
2023/05/31 01:15:31;;;;;;;4.78;2.53;;;;;;;9.23;100.00;102806.03;4972601;28;20425;-74
2023/05/31 01:18:41;;;;;;;5.10;2.75;;;;;;;9.19;100.00;102804.28;4976369;28;20218;-75
2023/05/31 01:21:32;;;;;;;6.43;2.85;;;;;;;9.16;100.00;102799.91;4971440;28;20413;-76
2023/05/31 01:24:16;;;;;;;6.55;2.55;;;;;;;9.14;100.00;102801.69;4975860;28;20128;-77
2023/05/31 01:27:01;;;;;;;6.10;2.70;;;;;;;9.09;100.00;102808.75;4990861;28;21055;-75
2023/05/31 01:29:46;;;;;;;8.85;3.22;;;;;;;9.06;100.00;102804.38;4978600;28;20115;-76
2023/05/31 01:32:31;;;;;;;6.57;2.72;;;;;;;9.04;100.00;102808.81;4987084;28;20508;-76
2023/05/31 01:35:16;;;;;;;7.20;2.72;;;;;;;9.01;100.00;102806.19;4992080;28;20040;-75
2023/05/31 01:38:00;;;;;;;5.88;2.78;;;;;;;8.99;100.00;102805.31;4990070;28;20057;-76
2023/05/31 01:40:44;;;;;;;5.70;2.70;;;;;;;8.96;100.00;102808.00;4990908;28;22094;-75
2023/05/31 01:43:28;;;;;;;4.93;3.30;;;;;;;8.93;100.00;102800.97;4974727;28;20056;-76
2023/05/31 01:46:15;;;;;;;6.13;3.00;;;;;;;8.92;100.00;102798.31;4987420;28;20049;-76
2023/05/31 01:49:01;;;;;;;4.95;3.10;;;;;;;8.88;100.00;102796.59;4987615;28;20073;-77
2023/05/31 01:51:46;;;;;;;6.93;2.80;;;;;;;8.84;100.00;102808.97;4989151;28;20044;-76
2023/05/31 01:54:30;;;;;;;6.70;3.17;;;;;;;8.80;100.00;102802.81;4977590;28;20496;-76
2023/05/31 01:57:15;;;;;;;5.20;2.90;;;;;;;8.78;100.00;102815.13;4990463;28;20049;-76
2023/05/31 02:00:00;;;;;;;6.15;2.75;;;;;;;8.74;100.00;102818.69;4987788;28;20048;-76
2023/05/31 02:02:45;;;;;;;7.28;3.05;;;;;;;8.71;100.00;102809.94;4988705;28;20152;-74
2023/05/31 02:05:29;;;;;;;9.23;3.45;;;;;;;8.68;100.00;102824.03;4976837;28;20051;-74
2023/05/31 02:08:13;;;;;;;7.95;3.35;;;;;;;8.66;100.00;102824.03;4973506;28;20162;-75
2023/05/31 02:10:57;;;;;;;6.88;3.35;;;;;;;8.65;100.00;102813.47;4975743;28;20136;-76
2023/05/31 02:13:42;;;;;;;8.02;3.20;;;;;;;8.63;100.00;102813.50;4973116;28;20069;-76
2023/05/31 02:16:26;;;;;;;6.60;3.10;;;;;;;8.62;100.00;102810.84;4989430;28;20064;-76
2023/05/31 02:19:13;;;;;;;6.97;2.80;;;;;;;8.61;100.00;102817.03;4991259;28;20095;-76
2023/05/31 02:21:57;;;;;;;8.07;3.25;;;;;;;8.59;100.00;102814.38;4988104;28;20544;-76
2023/05/31 02:24:42;;;;;;;7.80;3.50;;;;;;;8.58;100.00;102817.03;4991296;28;20128;-76
2023/05/31 02:27:29;;;;;;;6.03;3.13;;;;;;;8.54;100.00;102818.81;4973692;28;20542;-76
2023/05/31 02:30:13;;;;;;;7.13;3.55;;;;;;;8.53;100.00;102817.94;4990571;28;20891;-75
2023/05/31 02:32:59;;;;;;;7.93;3.63;;;;;;;8.52;100.00;102812.66;4988678;28;20100;-75
2023/05/31 02:35:44;;;;;;;6.20;3.13;;;;;;;8.52;100.00;102813.56;4988883;28;20084;-75
2023/05/31 02:38:28;;;;;;;7.70;3.75;;;;;;;8.53;100.00;102812.66;4991730;28;20472;-76
2023/05/31 02:41:12;;;;;;;7.90;3.58;;;;;;;8.49;100.00;102810.88;4977265;28;20999;-76
2023/05/31 02:43:56;;;;;;;8.13;3.88;;;;;;;8.47;100.00;102815.28;4991359;28;20045;-76
2023/05/31 02:46:40;;;;;;;7.10;3.55;;;;;;;8.46;100.00;102820.56;4992886;28;20484;-76
2023/05/31 02:49:24;;;;;;;8.27;3.83;;;;;;;8.45;100.00;102822.34;4993038;28;20048;-76
2023/05/31 02:52:08;;;;;;;8.45;4.00;;;;;;;8.43;100.00;102835.56;4992543;28;20061;-76
2023/05/31 02:54:55;;;;;;;9.82;4.00;;;;;;;8.39;100.00;102828.53;4985665;28;20045;-75
2023/05/31 02:57:39;;;;;;;9.63;4.18;;;;;;;8.38;100.00;102831.16;4991742;28;20052;-75
2023/05/31 03:00:26;;;;;;;8.43;4.20;;;;;;;8.36;100.00;102832.94;4992909;28;20064;-76
2023/05/31 03:03:12;;;;;;;8.75;3.90;;;;;;;8.33;100.00;102827.69;4992514;28;20048;-76
2023/05/31 03:05:56;;;;;;;10.85;3.88;;;;;;;8.31;100.00;102824.16;4991967;28;20159;-76
2023/05/31 03:08:41;;;;;;;10.88;4.22;;;;;;;8.27;100.00;102826.81;4988119;28;20036;-75
2023/05/31 03:11:25;;;;;;;9.75;3.92;;;;;;;8.25;100.00;102828.59;4991227;28;20409;-76
2023/05/31 03:14:09;;;;;;;9.90;3.97;;;;;;;8.24;100.00;102831.22;4990387;28;20045;-76
2023/05/31 03:16:54;;;;;;;9.60;3.95;;;;;;;8.23;100.00;102822.44;4991387;28;20064;-76
2023/05/31 03:19:41;;;;;;;9.90;4.35;;;;;;;8.21;100.00;102818.91;4974071;28;20072;-76
2023/05/31 03:22:25;;;;;;;9.15;4.47;;;;;;;8.20;100.00;102825.09;4991899;28;20053;-76
2023/05/31 03:25:09;;;;;;;7.50;4.10;;;;;;;8.22;100.00;102825.94;4991244;28;20524;-76
2023/05/31 03:27:53;;;;;;;10.27;4.60;;;;;;;8.20;100.00;102833.00;4991215;28;20134;-74
2023/05/31 03:30:37;;;;;;;9.00;4.75;;;;;;;8.20;100.00;102832.13;4993514;28;22253;-76
2023/05/31 03:33:22;;;;;;;8.98;3.83;;;;;;;8.18;100.00;102839.16;4991734;28;20869;-76
2023/05/31 03:36:07;;;;;;;9.85;4.40;;;;;;;8.17;100.00;102825.09;4992311;28;20508;-75
2023/05/31 03:38:51;;;;;;;13.10;4.57;;;;;;;8.17;100.00;102838.28;4989316;28;22095;-75
2023/05/31 03:41:35;;;;;;;10.13;4.07;;;;;;;8.17;100.00;102843.56;4989000;28;20049;-75
2023/05/31 03:44:19;;;;;;;10.63;4.75;;;;;;;8.15;100.00;102835.66;4990717;28;20252;-76
2023/05/31 03:47:03;;;;;;;10.43;4.68;;;;;;;8.14;100.00;102833.03;4972460;28;20111;-76
2023/05/31 03:49:47;;;;;;;8.32;4.75;;;;;;;8.14;100.00;102835.66;4992937;28;20049;-76
2023/05/31 03:52:33;;;;;;;11.23;4.30;;;;;;;8.15;100.00;102837.41;4992971;28;20049;-76
2023/05/31 03:55:18;;;;;;;11.38;4.68;;;;;;;8.14;100.00;102836.56;4995297;28;20108;-77
2023/05/31 03:58:02;;;;;;;10.90;5.18;;;;;;;8.15;100.00;102834.78;4978880;28;20052;-76
2023/05/31 04:00:46;;;;;;;8.85;4.50;;;;;;;8.13;100.00;102829.50;4992265;28;20049;-76
2023/05/31 04:03:30;;;;;;;12.25;4.50;;;;;;;8.17;100.00;102837.41;4989759;28;20173;-76
2023/05/31 04:06:18;;;;;;;10.63;4.70;;;;;;;8.18;100.00;102834.78;4978528;28;20412;-76
2023/05/31 04:09:04;;;;;;;10.43;4.97;;;;;;;8.21;100.00;102840.03;4993550;28;20571;-76
2023/05/31 04:11:48;;;;;;;12.95;4.82;;;;;;;8.22;100.00;102841.78;4992598;28;20125;-76
2023/05/31 04:14:32;;;;;;;13.90;5.13;;;;;;;8.25;100.00;102852.34;4993553;28;20107;-76
2023/05/31 04:17:16;;;;;;;9.80;5.05;;;;;;;8.28;100.00;102840.88;4990887;28;20057;-75
2023/05/31 04:20:00;;;;;;;11.65;4.65;;;;;;;8.33;100.00;102848.81;4991842;28;20036;-76
2023/05/31 04:22:44;;;;;;;10.13;5.30;;;;;;;8.35;100.00;102844.38;4993883;28;20123;-76
2023/05/31 04:25:28;;;;;;;11.02;4.78;;;;;;;8.38;100.00;102839.06;4993964;28;20048;-76
2023/05/31 04:28:13;;;;;;;12.40;5.53;;;;;;;8.42;100.00;102849.63;4989052;28;20079;-75
2023/05/31 04:30:57;;;;;;;11.38;5.78;;;;;;;8.47;100.00;102852.25;4993198;28;20061;-76
2023/05/31 04:33:42;;;;;;;9.43;4.82;;;;;;;8.52;100.00;102850.50;4979859;28;20163;-75
2023/05/31 04:36:26;;;;;;;13.90;4.57;;;;;;;8.60;100.00;102846.94;4980220;28;20614;-75
2023/05/31 04:39:14;;;;;;;11.45;4.93;;;;;;;8.64;100.00;102846.94;4990659;28;20057;-76
2023/05/31 04:41:59;;;;;;;10.25;5.38;;;;;;;8.67;100.00;102846.91;4991338;28;20205;-76
2023/05/31 04:44:43;;;;;;;11.60;4.78;;;;;;;8.74;100.00;102844.22;4991678;28;20060;-76
2023/05/31 04:47:29;;;;;;;12.48;5.07;;;;;;;8.79;100.00;102845.97;4991364;28;20052;-76
2023/05/31 04:50:14;;;;;;;10.07;4.63;;;;;;;8.88;100.00;102844.16;4991943;28;20057;-76
2023/05/31 04:52:58;;;;;;;8.88;4.50;;;;;;;8.95;100.00;102848.50;4992537;28;20140;-76
2023/05/31 04:55:42;;;;;;;11.45;5.00;;;;;;;9.05;100.00;102834.34;4992792;28;20176;-75
2023/05/31 04:58:27;;;;;;;11.43;4.95;;;;;;;9.14;100.00;102838.69;4988890;28;20114;-75
2023/05/31 05:01:14;;;;;;;11.65;4.60;;;;;;;9.22;100.00;102842.13;4978313;28;20132;-75
2023/05/31 05:03:59;;;;;;;12.52;4.90;;;;;;;9.34;100.00;102837.66;4992592;28;20112;-75
2023/05/31 05:06:43;;;;;;;12.82;4.95;;;;;;;9.45;100.00;102845.47;4993668;28;20052;-76
2023/05/31 05:09:27;;;;;;;9.55;4.43;;;;;;;9.57;100.00;102837.44;4996867;28;20267;-75
2023/05/31 05:12:11;;;;;;;11.75;4.75;;;;;;;9.70;100.00;102842.63;4995745;28;20077;-75
2023/05/31 05:14:55;;;;;;;10.30;4.85;;;;;;;9.82;100.00;102842.50;4996022;28;20456;-75
2023/05/31 05:17:41;;;;;;;9.43;4.80;;;;;;;10.01;100.00;102847.56;4996716;28;20049;-75
2023/05/31 05:20:25;;;;;;;9.70;4.43;;;;;;;10.24;100.00;102841.16;4980917;28;21734;-75
2023/05/31 05:23:09;;;;;;;12.35;5.35;;;;;;;10.42;100.00;102843.59;4993203;28;20465;-76
2023/05/31 05:25:53;;;;;;;8.98;4.45;;;;;;;10.61;100.00;102846.00;4996251;28;20290;-75
2023/05/31 05:28:38;;;;;;;12.25;5.68;;;;;;;10.78;100.00;102852.84;4996120;28;20044;-75
2023/05/31 05:31:22;;;;;;;19.00;6.03;;;;;;;10.97;100.00;102846.41;4983235;28;20116;-75
2023/05/31 05:34:07;;;;;;;10.68;5.15;;;;;;;11.18;100.00;102846.97;4994368;28;20065;-75
2023/05/31 05:36:52;;;;;;;11.73;4.65;;;;;;;11.38;100.00;102841.31;4992746;28;20060;-75
2023/05/31 05:39:36;;;;;;;7.68;4.72;;;;;;;11.57;100.00;102846.31;4993497;28;20057;-75
2023/05/31 05:42:20;;;;;;;8.70;4.45;;;;;;;11.78;100.00;102846.81;4995484;28;20166;-75
2023/05/31 05:45:07;;;;;;;9.75;4.75;;;;;;;11.99;100.00;102849.97;4975505;28;20061;-75
2023/05/31 05:47:50;;;;;;;11.93;5.32;;;;;;;12.16;100.00;102847.00;4994775;28;20085;-75
2023/05/31 05:50:34;;;;;;;11.50;4.70;;;;;;;12.27;100.00;102839.69;4996321;28;20080;-76
2023/05/31 05:53:21;;;;;;;11.48;5.03;;;;;;;12.40;100.00;102832.34;4994427;28;20191;-74
2023/05/31 05:56:05;;;;;;;12.18;5.18;;;;;;;12.56;100.00;102837.31;4990736;28;20119;-75
2023/05/31 05:58:50;;;;;;;10.52;5.22;;;;;;;12.75;100.00;102841.31;4979490;28;20068;-74
2023/05/31 06:01:35;;;;;;;11.55;5.07;;;;;;;13.03;100.00;102837.13;4994668;28;20432;-74
2023/05/31 06:04:19;;;;;;;9.23;5.13;;;;;;;13.28;100.00;102841.84;4988791;28;20048;-74
2023/05/31 06:07:03;;;;;;;8.02;4.68;;;;;;;13.37;100.00;102840.75;4974165;28;20064;-74
2023/05/31 06:09:47;;;;;;;8.25;4.80;;;;;;;13.46;100.00;102839.66;4978069;28;20921;-75
2023/05/31 06:12:33;;;;;;;9.30;5.03;;;;;;;13.60;100.00;102842.84;4989756;28;20049;-75
2023/05/31 06:15:19;;;;;;;10.38;4.85;;;;;;;13.73;100.00;102837.19;4973884;28;20048;-74
2023/05/31 06:18:04;;;;;;;9.27;4.95;;;;;;;13.87;100.00;102839.44;4987557;28;20057;-73
2023/05/31 06:20:48;;;;;;;8.82;4.68;;;;;;;13.96;100.00;102850.72;4990861;28;20111;-74
2023/05/31 06:23:32;;;;;;;9.38;5.30;;;;;;;14.01;100.00;102836.41;4987491;28;20115;-76
2023/05/31 06:26:16;;;;;;;11.93;5.22;;;;;;;14.10;100.00;102836.16;4966032;28;20100;-80
2023/05/31 06:29:01;;;;;;;10.10;5.00;;;;;;;14.23;100.00;102836.69;4977313;28;20053;-85
2023/05/31 06:31:45;;;;;;;10.60;5.25;;;;;;;14.45;100.00;102841.38;4974744;28;20570;-82
2023/05/31 06:34:32;;;;;;;10.45;5.10;;;;;;;14.58;100.00;102839.19;4992024;28;20143;-79
2023/05/31 06:37:16;;;;;;;10.38;5.50;;;;;;;14.69;100.00;102837.06;4984195;28;20111;-79
2023/05/31 06:40:00;;;;;;;9.02;4.95;;;;;;;14.88;100.00;102828.53;4982609;28;20180;-80
2023/05/31 06:42:44;;;;;;;8.98;5.05;;;;;;;14.98;100.00;102837.97;4995138;28;20085;-80
2023/05/31 06:45:33;;;;;;;8.23;4.43;;;;;;;14.98;100.00;102835.28;4996265;28;20041;-78
2023/05/31 06:48:21;;;;;;;10.02;5.03;;;;;;;15.04;100.00;102836.91;4997936;28;20048;-77
2023/05/31 06:51:06;;;;;;;9.05;4.68;;;;;;;15.11;100.00;102835.78;4997986;28;20074;-76
2023/05/31 06:53:50;;;;;;;9.52;4.63;;;;;;;15.19;100.00;102835.50;4994132;28;20065;-76
2023/05/31 06:56:34;;;;;;;6.80;4.47;;;;;;;15.28;100.00;102837.00;4992163;28;20150;-76
2023/05/31 06:59:18;;;;;;;6.45;4.30;;;;;;;15.37;100.00;102838.50;4997006;28;20048;-75
2023/05/31 07:02:02;;;;;;;9.43;4.55;;;;;;;15.49;100.00;102846.09;4992282;28;20064;-74
2023/05/31 07:04:49;;;;;;;7.35;4.18;;;;;;;15.50;100.00;102845.16;4995641;28;20068;-75
2023/05/31 07:07:34;;;;;;;9.55;5.10;;;;;;;15.57;100.00;102844.00;4997691;28;20112;-75
2023/05/31 07:10:19;;;;;;;7.32;4.22;;;;;;;15.67;100.00;102833.00;4981096;28;20080;-75
2023/05/31 07:13:06;;;;;;;11.05;4.00;;;;;;;15.85;100.00;102831.50;4994978;28;20092;-76
2023/05/31 07:15:51;;;;;;;7.75;4.30;;;;;;;15.97;100.00;102833.72;4997448;28;20080;-81
2023/05/31 07:18:35;;;;;;;8.45;4.20;;;;;;;16.05;100.00;102835.25;4997226;28;20076;-80
2023/05/31 07:21:19;;;;;;;12.32;4.57;;;;;;;16.13;100.00;102835.84;4983299;28;20097;-79
2023/05/31 07:24:09;;;;;;;8.10;4.68;;;;;;;16.26;100.00;102825.56;4987272;28;20120;-80
2023/05/31 07:26:55;;;;;;;6.03;3.83;;;;;;;16.45;100.00;102828.38;4997459;28;20154;-77
2023/05/31 07:29:43;;;;;;;9.00;3.90;;;;;;;16.47;100.00;102836.34;4987704;28;20052;-76
2023/05/31 07:32:28;;;;;;;6.90;3.88;;;;;;;16.51;100.00;102827.28;4997201;28;20121;-77
2023/05/31 07:35:12;;;;;;;8.50;3.97;;;;;;;16.59;100.00;102824.28;4988348;28;20091;-74
2023/05/31 07:37:59;;;;;;;8.35;4.20;;;;;;;16.73;100.00;102831.78;4995357;28;20976;-75
2023/05/31 07:40:46;;;;;;;7.50;3.88;;;;;;;16.90;100.00;102826.63;4997741;28;20081;-73
2023/05/31 07:43:31;;;;;;;7.25;3.13;;;;;;;17.03;100.00;102823.44;4999913;28;20053;-75
2023/05/31 07:46:15;;;;;;;6.25;3.42;;;;;;;17.12;100.00;102825.75;4991880;28;20556;-74
2023/05/31 07:48:59;;;;;;;6.30;3.33;;;;;;;17.09;100.00;102818.72;4981953;28;20052;-74
2023/05/31 07:51:43;;;;;;;8.23;3.58;;;;;;;17.24;100.00;102825.25;4997563;28;20060;-75
2023/05/31 07:54:28;;;;;;;7.05;3.63;;;;;;;17.40;100.00;102821.91;4994284;28;20142;-74
2023/05/31 07:57:12;;;;;;;8.23;3.47;;;;;;;17.57;100.00;102828.31;4982326;28;20104;-75
2023/05/31 07:59:57;;;;;;;9.40;3.55;;;;;;;17.70;100.00;102826.00;4974543;28;20048;-74
2023/05/31 08:02:43;;;;;;;7.53;3.50;;;;;;;17.71;100.00;102823.22;4978273;28;20101;-74
2023/05/31 08:05:35;;;;;;;7.20;3.22;;;;;;;17.74;100.00;102828.47;4981489;28;20060;-74
2023/05/31 08:08:19;;;;;;;7.18;3.10;;;;;;;17.80;100.00;102827.31;4996443;28;20061;-77
2023/05/31 08:11:03;;;;;;;6.70;3.20;;;;;;;17.77;100.00;102817.59;4976656;28;20116;-75
2023/05/31 08:13:47;;;;;;;7.05;3.25;;;;;;;17.72;100.00;102822.31;4983017;28;20137;-74
2023/05/31 08:16:39;;;;;;;7.03;3.38;;;;;;;17.91;100.00;102821.47;4998849;28;20052;-75
2023/05/31 08:19:23;;;;;;;6.70;2.83;;;;;;;18.08;100.00;102809.16;4969933;28;20116;-74
2023/05/31 08:22:08;;;;;;;4.70;2.90;;;;;;;18.28;100.00;102811.75;4993850;28;20048;-76
2023/05/31 08:24:52;;;;;;;6.00;3.13;;;;;;;18.39;100.00;102815.72;4990287;28;20416;-76
2023/05/31 08:27:36;;;;;;;5.95;3.38;;;;;;;18.43;100.00;102814.66;4984694;28;20048;-76
2023/05/31 08:30:21;;;;;;;6.10;3.33;;;;;;;18.46;100.00;102806.44;5000948;28;21296;-75
2023/05/31 08:33:07;;;;;;;5.68;3.40;;;;;;;18.60;100.00;102803.09;5002121;28;20091;-76
2023/05/31 08:35:52;;;;;;;5.60;2.80;;;;;;;18.68;100.00;102800.91;4983124;28;20104;-75
2023/05/31 08:38:37;;;;;;;4.72;2.88;;;;;;;18.72;100.00;102797.16;4981004;28;20072;-77
2023/05/31 08:41:22;;;;;;;4.97;3.05;;;;;;;18.84;100.00;102797.47;5000328;28;20148;-76
2023/05/31 08:44:10;;;;;;;7.28;2.95;;;;;;;19.00;100.00;102798.44;5007133;28;20044;-76
2023/05/31 08:47:18;;;;;;;7.80;3.20;;;;;;;19.14;99.72;102805.81;4999773;28;20112;-75
2023/05/31 08:53:05;;;;;;;3.33;2.00;;;;;;;19.03;100.00;102804.63;4934885;28;20065;-74
2023/05/31 08:55:51;;;;;;;6.35;2.10;;;;;;;18.72;100.00;102809.69;4938338;28;20079;-75
2023/05/31 08:58:36;;;;;;;5.75;2.00;;;;;;;18.35;100.00;102806.13;4924825;28;21049;-76
2023/05/31 09:01:20;;;;;;;4.82;1.98;;;;;;;18.11;100.00;102803.63;4939994;28;20050;-76
2023/05/31 09:04:08;;;;;;;4.65;2.30;;;;;;;17.99;100.00;102792.53;4926988;28;20507;-76
2023/05/31 09:06:55;;;;;;;7.70;2.15;;;;;;;18.01;100.00;102814.75;4938374;28;20062;-75
2023/05/31 09:09:40;;;;;;;4.78;2.67;;;;;;;17.88;100.00;102803.72;4941429;28;20058;-75
2023/05/31 09:12:24;;;;;;;5.70;2.53;;;;;;;17.77;100.00;102806.03;4934080;28;20042;-75
2023/05/31 09:15:14;;;;;;;4.65;2.42;;;;;;;17.80;100.00;102807.69;4924308;28;20120;-76
2023/05/31 09:18:37;;;;;;;5.05;2.50;;;;;;;17.78;100.00;102803.25;4923694;28;20134;-75
2023/05/31 09:21:21;;;;;;;5.85;2.45;;;;;;;17.88;100.00;102809.06;4924594;28;20054;-77
2023/05/31 09:24:06;;;;;;;4.60;2.30;;;;;;;17.77;100.00;102801.53;4917691;28;20091;-78
2023/05/31 09:26:51;;;;;;;4.88;2.65;;;;;;;17.62;100.00;102803.09;4942617;28;20278;-76
2023/05/31 09:29:36;;;;;;;6.07;2.40;;;;;;;17.62;100.00;102799.53;4930459;28;20116;-80
2023/05/31 09:32:22;;;;;;;5.28;2.47;;;;;;;17.73;100.00;102794.59;4930787;28;20069;-80
2023/05/31 09:35:09;;;;;;;5.97;2.50;;;;;;;17.89;100.00;102799.22;4938716;28;22127;-83
2023/05/31 09:37:56;;;;;;;6.18;2.90;;;;;;;17.82;100.00;102798.63;4941431;28;20062;-81
2023/05/31 09:40:43;;;;;;;5.22;3.08;;;;;;;17.61;100.00;102800.47;4937019;28;20046;-82
2023/05/31 09:43:27;;;;;;;4.30;2.90;;;;;;;17.55;100.00;102798.97;4924446;28;20548;-82
2023/05/31 09:46:15;;;;;;;6.55;3.30;;;;;;;17.40;100.00;102803.16;4923537;28;21898;-80
2023/05/31 09:49:01;;;;;;;9.48;3.80;;;;;;;17.32;100.00;102800.81;4938612;28;20058;-82
2023/05/31 09:51:52;;;;;;;9.20;3.17;;;;;;;17.47;100.00;102793.94;4940481;28;20074;-81
2023/05/31 09:54:37;;;;;;;4.57;3.15;;;;;;;17.42;100.00;102801.28;4941678;28;20194;-81
2023/05/31 09:57:29;;;;;;;7.05;3.53;;;;;;;17.31;100.00;102798.19;4941403;28;20257;-83
2023/05/31 10:00:16;;;;;;;9.57;3.95;;;;;;;17.07;100.00;102796.53;4931411;28;20102;-82
2023/05/31 10:03:01;;;;;;;8.02;4.00;;;;;;;17.07;100.00;102796.53;4940797;28;20037;-82
2023/05/31 10:05:45;;;;;;;7.22;3.83;;;;;;;17.09;100.00;102791.09;4935598;28;20059;-80
2023/05/31 10:08:36;;;;;;;6.20;3.80;;;;;;;16.95;100.00;102792.50;4939022;28;20185;-80
2023/05/31 10:11:26;;;;;;;8.05;3.80;;;;;;;16.87;100.00;102789.28;4939194;28;20049;-81
2023/05/31 10:14:19;;;;;;;8.52;3.60;;;;;;;16.90;100.00;102788.28;4942523;28;20101;-79
2023/05/31 10:17:08;;;;;;;8.60;4.57;;;;;;;16.83;100.00;102787.66;4925762;28;20154;-79
2023/05/31 10:20:06;;;;;;;7.45;4.00;;;;;;;16.63;100.00;102786.69;4940419;28;20049;-80
2023/05/31 10:22:52;;;;;;;10.15;4.30;;;;;;;16.52;100.00;102788.94;4925468;28;20045;-80
2023/05/31 10:25:53;;;;;;;6.65;3.92;;;;;;;16.38;100.00;102787.66;4933319;28;20050;-82
2023/05/31 10:28:56;;;;;;;5.30;3.70;;;;;;;16.51;100.00;102793.38;4936986;28;20062;-80
2023/05/31 10:31:49;;;;;;;9.25;4.18;;;;;;;16.56;100.00;102777.16;4934405;28;20042;-85
2023/05/31 10:34:36;;;;;;;;;;;;;;;16.64;100.00;102777.75;4923285;28;20079;-87
2023/05/31 10:37:24;;;;;;;7.50;4.97;;;;;;;16.75;100.00;102782.66;4939194;28;19933;-84
2023/05/31 10:40:24;;;;;;;7.13;4.05;;;;;;;16.92;100.00;102783.75;4944138;28;20062;-84
2023/05/31 10:43:23;;;;;;;6.70;4.28;;;;;;;17.03;100.00;102773.50;4939625;28;20145;-87
2023/05/31 10:46:19;;;;;;;7.35;4.40;;;;;;;17.06;100.00;102784.06;4928449;28;22412;-83
2023/05/31 10:49:08;;;;;;;5.78;4.50;;;;;;;16.93;100.00;102781.00;4911174;28;20110;-88
2023/05/31 10:51:53;;;;;;;6.70;4.80;;;;;;;16.90;100.00;102774.91;4932497;28;20548;-82
2023/05/31 10:54:38;;;;;;;7.55;4.82;;;;;;;16.59;100.00;102779.72;4939332;28;20175;-85
2023/05/31 10:57:28;;;;;;;8.68;4.70;;;;;;;16.47;100.00;102780.22;4944367;28;20075;-84
2023/05/31 11:00:13;;;;;;;11.32;4.80;;;;;;;16.52;100.00;102776.41;4936167;28;20118;-86
2023/05/31 11:02:58;;;;;;;7.10;3.85;;;;;;;16.65;100.00;102779.47;4927262;28;20062;-85
2023/05/31 11:05:54;;;;;;;5.57;4.03;;;;;;;16.77;100.00;102774.56;4945866;28;20521;-85
2023/05/31 11:08:59;;;;;;;5.38;4.00;;;;;;;16.73;100.00;102764.91;4944314;28;20469;-85
2023/05/31 11:11:49;;;;;;;7.53;4.40;;;;;;;16.71;100.00;102762.31;4929504;28;20129;-83
2023/05/31 11:14:37;;;;;;;7.80;4.63;;;;;;;16.64;100.00;102771.50;4940750;28;20050;-83
2023/05/31 11:17:21;;;;;;;10.27;4.55;;;;;;;16.69;100.00;102761.50;4940251;28;20107;-76
2023/05/31 11:20:07;;;;;;;7.32;3.92;;;;;;;16.80;100.00;102756.59;4938810;28;20142;-76
2023/05/31 11:23:16;;;;;;;5.28;4.00;;;;;;;16.91;100.00;102756.13;4943601;28;20074;-74
2023/05/31 11:26:14;;;;;;;6.03;4.13;;;;;;;17.02;100.00;102758.38;4941012;28;20074;-75
2023/05/31 11:29:01;;;;;;;5.50;3.75;;;;;;;17.06;100.00;102756.44;4941068;28;20476;-75
2023/05/31 11:31:55;;;;;;;5.78;4.25;;;;;;;17.02;100.00;102755.72;4925525;28;20784;-75
2023/05/31 11:35:10;;;;;;;7.18;3.88;;;;;;;17.07;100.00;102760.88;4928172;28;20094;-75
2023/05/31 11:38:09;;;;;;;7.40;4.38;;;;;;;16.98;100.00;102748.72;4938459;28;20061;-76
2023/05/31 11:41:02;;;;;;;7.25;4.55;;;;;;;17.04;100.00;102742.25;4930716;28;20049;-75
2023/05/31 11:43:48;;;;;;;6.70;4.57;;;;;;;16.95;100.00;102740.81;4942259;28;20061;-76
2023/05/31 11:46:33;;;;;;;7.80;4.40;;;;;;;16.87;100.00;102734.91;4945296;28;22061;-76
2023/05/31 11:49:17;;;;;;;7.22;4.75;;;;;;;17.02;100.00;102739.66;4937784;28;20546;-75
2023/05/31 11:52:04;;;;;;;6.50;4.75;;;;;;;17.20;100.00;102738.00;4943591;28;20123;-75
2023/05/31 11:54:49;;;;;;;7.07;4.80;;;;;;;17.15;100.00;102740.00;4948329;28;20058;-74
2023/05/31 11:57:41;;;;;;;6.75;4.70;;;;;;;16.99;100.00;102736.22;4946108;28;20114;-75
2023/05/31 12:00:27;;;;;;;8.90;4.35;;;;;;;17.10;100.00;102737.50;4945115;28;20102;-76
2023/05/31 12:03:20;;;;;;;4.90;3.65;;;;;;;17.15;100.00;102729.28;4944512;28;20509;-75
2023/05/31 12:06:05;;;;;;;6.57;4.07;;;;;;;17.12;100.00;102720.53;4937878;28;20041;-74
2023/05/31 12:08:51;;;;;;;5.13;3.58;;;;;;;17.17;100.00;102716.69;4943015;28;20560;-77
2023/05/31 12:11:35;;;;;;;4.35;3.72;;;;;;;17.23;100.00;102718.25;4941740;28;20110;-76
2023/05/31 12:14:20;;;;;;;7.45;4.00;;;;;;;17.08;99.90;102725.13;4943543;28;20043;-75
2023/05/31 12:17:05;;;;;;;6.25;3.90;;;;;;;17.05;100.00;102718.09;4933284;28;20102;-75
2023/05/31 12:19:50;;;;;;;7.07;3.53;;;;;;;16.99;100.00;102704.09;4927018;28;20698;-74
2023/05/31 12:22:35;;;;;;;5.28;3.75;;;;;;;17.02;100.00;102712.91;4945357;28;20600;-75
2023/05/31 12:25:20;;;;;;;5.15;3.85;;;;;;;17.05;100.00;102704.72;4940781;28;20533;-74
2023/05/31 12:28:04;;;;;;;6.43;4.30;;;;;;;17.11;100.00;102700.94;4928928;28;20066;-76
2023/05/31 12:30:51;;;;;;;7.70;4.97;;;;;;;17.19;100.00;102697.91;4943462;28;20099;-74
2023/05/31 12:33:35;;;;;;;6.93;4.70;;;;;;;17.29;100.00;102698.38;4945713;28;20057;-75
2023/05/31 12:36:19;;;;;;;8.77;5.32;;;;;;;17.33;100.00;102700.81;4942589;28;20203;-74
2023/05/31 12:39:09;;;;;;;7.70;5.10;;;;;;;17.24;100.00;102696.78;4944221;28;20755;-75
2023/05/31 12:41:56;;;;;;;7.63;4.88;;;;;;;17.19;100.00;102697.91;4929145;28;20047;-75
2023/05/31 12:44:45;;;;;;;8.60;4.80;;;;;;;17.25;100.00;102700.31;4928935;28;20784;-76
2023/05/31 12:47:29;;;;;;;6.65;4.30;;;;;;;17.22;100.00;102697.78;4942869;28;20042;-75
2023/05/31 12:50:13;;;;;;;7.53;4.90;;;;;;;17.21;100.00;102696.06;4942771;28;20482;-76